sensor_id;sensor_type;location;lat;lon;timestamp;P1;durP1;ratioP1;P2;durP2;ratioP2
15151;SDS011;7676;50.900;6.234;2023-07-24T00:08:43;2.80;;;2.10;;
15151;SDS011;7676;50.900;6.234;2023-07-24T00:23:46;2.77;;;2.50;;
15151;SDS011;7676;50.900;6.234;2023-07-24T00:38:48;3.83;;;2.73;;
15151;SDS011;7676;50.900;6.234;2023-07-24T00:53:50;3.33;;;2.67;;
15151;SDS011;7676;50.900;6.234;2023-07-24T01:08:53;3.30;;;2.70;;
15151;SDS011;7676;50.900;6.234;2023-07-24T01:24:10;3.17;;;2.50;;
15151;SDS011;7676;50.900;6.234;2023-07-24T01:39:15;3.40;;;2.60;;
15151;SDS011;7676;50.900;6.234;2023-07-24T01:54:20;3.43;;;2.90;;
15151;SDS011;7676;50.900;6.234;2023-07-24T02:09:22;4.60;;;3.20;;
15151;SDS011;7676;50.900;6.234;2023-07-24T02:24:24;5.90;;;3.13;;
15151;SDS011;7676;50.900;6.234;2023-07-24T02:39:27;4.83;;;3.50;;
15151;SDS011;7676;50.900;6.234;2023-07-24T02:54:30;3.60;;;2.97;;
15151;SDS011;7676;50.900;6.234;2023-07-24T03:09:32;4.33;;;3.37;;
15151;SDS011;7676;50.900;6.234;2023-07-24T03:24:35;6.30;;;3.40;;
15151;SDS011;7676;50.900;6.234;2023-07-24T03:39:37;4.57;;;3.17;;
15151;SDS011;7676;50.900;6.234;2023-07-24T03:54:40;3.87;;;3.33;;
15151;SDS011;7676;50.900;6.234;2023-07-24T04:09:43;4.23;;;3.20;;
15151;SDS011;7676;50.900;6.234;2023-07-24T04:24:45;4.13;;;3.43;;
15151;SDS011;7676;50.900;6.234;2023-07-24T04:39:48;4.43;;;3.33;;
15151;SDS011;7676;50.900;6.234;2023-07-24T04:54:50;4.27;;;3.57;;
15151;SDS011;7676;50.900;6.234;2023-07-24T05:09:53;4.13;;;3.47;;
15151;SDS011;7676;50.900;6.234;2023-07-24T05:24:56;3.50;;;3.20;;
15151;SDS011;7676;50.900;6.234;2023-07-24T05:39:58;3.80;;;3.07;;
15151;SDS011;7676;50.900;6.234;2023-07-24T05:55:01;3.00;;;2.70;;
15151;SDS011;7676;50.900;6.234;2023-07-24T06:10:05;4.23;;;2.80;;
15151;SDS011;7676;50.900;6.234;2023-07-24T06:25:08;3.10;;;2.50;;
15151;SDS011;7676;50.900;6.234;2023-07-24T06:40:10;4.30;;;3.13;;
15151;SDS011;7676;50.900;6.234;2023-07-24T06:55:13;3.70;;;2.80;;
15151;SDS011;7676;50.900;6.234;2023-07-24T07:10:16;4.10;;;2.47;;
15151;SDS011;7676;50.900;6.234;2023-07-24T07:25:18;4.07;;;2.90;;
15151;SDS011;7676;50.900;6.234;2023-07-24T07:40:22;4.50;;;2.90;;
15151;SDS011;7676;50.900;6.234;2023-07-24T07:55:25;4.37;;;3.20;;
15151;SDS011;7676;50.900;6.234;2023-07-24T08:10:28;4.13;;;3.20;;
15151;SDS011;7676;50.900;6.234;2023-07-24T08:25:31;3.60;;;3.00;;
15151;SDS011;7676;50.900;6.234;2023-07-24T08:40:33;3.00;;;2.53;;
15151;SDS011;7676;50.900;6.234;2023-07-24T08:55:36;3.00;;;2.40;;
15151;SDS011;7676;50.900;6.234;2023-07-24T09:10:38;2.20;;;2.00;;
15151;SDS011;7676;50.900;6.234;2023-07-24T09:25:42;2.50;;;2.20;;
15151;SDS011;7676;50.900;6.234;2023-07-24T09:40:45;2.70;;;2.03;;
15151;SDS011;7676;50.900;6.234;2023-07-24T09:55:56;2.03;;;1.83;;
15151;SDS011;7676;50.900;6.234;2023-07-24T10:11:00;5.07;;;2.60;;
15151;SDS011;7676;50.900;6.234;2023-07-24T10:26:03;2.80;;;2.50;;
15151;SDS011;7676;50.900;6.234;2023-07-24T10:41:08;2.47;;;2.27;;
15151;SDS011;7676;50.900;6.234;2023-07-24T10:56:12;3.33;;;2.70;;
15151;SDS011;7676;50.900;6.234;2023-07-24T11:11:15;3.37;;;2.17;;
15151;SDS011;7676;50.900;6.234;2023-07-24T11:26:19;3.03;;;2.70;;
15151;SDS011;7676;50.900;6.234;2023-07-24T11:41:23;2.80;;;2.23;;
15151;SDS011;7676;50.900;6.234;2023-07-24T11:56:26;1.43;;;1.03;;
15151;SDS011;7676;50.900;6.234;2023-07-24T12:11:31;1.50;;;1.37;;
15151;SDS011;7676;50.900;6.234;2023-07-24T12:26:34;0.70;;;0.50;;
15151;SDS011;7676;50.900;6.234;2023-07-24T12:41:37;1.10;;;0.80;;
15151;SDS011;7676;50.900;6.234;2023-07-24T12:56:39;0.97;;;0.80;;
15151;SDS011;7676;50.900;6.234;2023-07-24T13:11:45;0.83;;;0.80;;
15151;SDS011;7676;50.900;6.234;2023-07-24T13:26:50;1.57;;;1.10;;
15151;SDS011;7676;50.900;6.234;2023-07-24T13:41:53;1.17;;;1.07;;
15151;SDS011;7676;50.900;6.234;2023-07-24T13:56:55;1.30;;;1.20;;
15151;SDS011;7676;50.900;6.234;2023-07-24T14:11:58;2.23;;;1.40;;
15151;SDS011;7676;50.900;6.234;2023-07-24T14:27:01;2.23;;;1.40;;
15151;SDS011;7676;50.900;6.234;2023-07-24T14:42:03;2.03;;;1.40;;
15151;SDS011;7676;50.900;6.234;2023-07-24T14:57:06;1.20;;;1.10;;
15151;SDS011;7676;50.900;6.234;2023-07-24T15:12:26;1.67;;;1.50;;
15151;SDS011;7676;50.900;6.234;2023-07-24T15:27:28;2.63;;;1.77;;
15151;SDS011;7676;50.900;6.234;2023-07-24T15:42:31;13.07;;;4.93;;
15151;SDS011;7676;50.900;6.234;2023-07-24T15:57:35;5.07;;;3.40;;
15151;SDS011;7676;50.900;6.234;2023-07-24T16:12:38;2.10;;;1.90;;
15151;SDS011;7676;50.900;6.234;2023-07-24T16:27:41;2.50;;;1.90;;
15151;SDS011;7676;50.900;6.234;2023-07-24T16:42:43;2.10;;;1.77;;
15151;SDS011;7676;50.900;6.234;2023-07-24T16:57:47;1.97;;;1.50;;
15151;SDS011;7676;50.900;6.234;2023-07-24T17:12:50;2.47;;;1.87;;
15151;SDS011;7676;50.900;6.234;2023-07-24T17:27:52;2.53;;;1.93;;
15151;SDS011;7676;50.900;6.234;2023-07-24T17:42:57;2.83;;;1.90;;
15151;SDS011;7676;50.900;6.234;2023-07-24T17:58:02;1.90;;;1.67;;
15151;SDS011;7676;50.900;6.234;2023-07-24T18:13:05;2.83;;;2.43;;
15151;SDS011;7676;50.900;6.234;2023-07-24T18:28:07;2.50;;;2.30;;
15151;SDS011;7676;50.900;6.234;2023-07-24T18:43:13;3.13;;;2.73;;
15151;SDS011;7676;50.900;6.234;2023-07-24T18:58:15;3.77;;;2.83;;
15151;SDS011;7676;50.900;6.234;2023-07-24T19:13:18;2.90;;;2.60;;
15151;SDS011;7676;50.900;6.234;2023-07-24T19:28:20;2.67;;;2.47;;
15151;SDS011;7676;50.900;6.234;2023-07-24T19:43:23;3.10;;;2.67;;
15151;SDS011;7676;50.900;6.234;2023-07-24T19:58:25;2.70;;;2.50;;
15151;SDS011;7676;50.900;6.234;2023-07-24T20:13:35;3.40;;;3.10;;
15151;SDS011;7676;50.900;6.234;2023-07-24T20:28:39;3.10;;;2.67;;
15151;SDS011;7676;50.900;6.234;2023-07-24T20:43:42;4.07;;;3.20;;
15151;SDS011;7676;50.900;6.234;2023-07-24T20:58:44;3.97;;;3.27;;
15151;SDS011;7676;50.900;6.234;2023-07-24T21:13:48;4.70;;;2.87;;
15151;SDS011;7676;50.900;6.234;2023-07-24T21:28:53;3.87;;;2.73;;
15151;SDS011;7676;50.900;6.234;2023-07-24T21:43:57;4.63;;;2.53;;
15151;SDS011;7676;50.900;6.234;2023-07-24T21:59:14;4.23;;;2.13;;
15151;SDS011;7676;50.900;6.234;2023-07-24T22:14:17;3.60;;;2.33;;
15151;SDS011;7676;50.900;6.234;2023-07-24T22:29:21;3.07;;;2.20;;
15151;SDS011;7676;50.900;6.234;2023-07-24T22:44:23;2.17;;;1.97;;
15151;SDS011;7676;50.900;6.234;2023-07-24T22:59:26;3.67;;;2.40;;
15151;SDS011;7676;50.900;6.234;2023-07-24T23:14:29;4.63;;;2.40;;
15151;SDS011;7676;50.900;6.234;2023-07-24T23:29:32;5.10;;;2.20;;
15151;SDS011;7676;50.900;6.234;2023-07-24T23:44:34;2.60;;;2.07;;
15151;SDS011;7676;50.900;6.234;2023-07-24T23:59:38;3.43;;;2.27;;
